GMMH

Details ICAO GMMH (VIL)
Name DAKHLA
Region Morocco
Timezone Africa/El_Aaiun (UTC+0.0)
Plans Departing 13
Arriving 14
Stats Elevation 36 ft / 11 m (AMSL)
Location 23.718294° -15.931993°
Runways 1
Magnetic Variation 5.369° W
Sunrise 2017-01-19 07:49:03 UTC / 2017-01-19 07:49:03 Local
Sunset 2017-01-19 18:42:09 UTC / 2017-01-19 18:42:09 Local
Advertisement - Login to hide

Runways

ID Width Length Bearing (true) Bearing (mag) Surface Threshold Offset Overrun Length
03 148 ft / 45 m 9,886 ft / 3,013 m 22.66° 28.03° Asphalt 0 ft / 0 m 323 ft / 98 m
21 148 ft / 45 m 9,886 ft / 3,013 m 202.67° 208.04° Asphalt 0 ft / 0 m 377 ft / 115 m

Map

Weather

Temperature
Clouds and Precipitation
Forecast for 2017-01-20 00:00 UTC. Updated 2 hours ago
Winds

METAR

GMMH 192100Z 02014KT CAVOK 16/12 Q1020 NOSIG

TAF

TAF GMMH 191100Z 1912/2018 02020KT CAVOK TEMPO 2003/2014 06011KT

Frequencies

Tower 118.10 MHz TWR
Warning: Do not use this data for real-world aviation or navigation. No guarantee of current accuracy is given.